This is the latest recevied weather packets stored in our database for station/object IU1TLK-10. If no packets are shown the sender has not sent any weather packets the latest 10 day(s).
| Time | Temp. | Humidity | Pressure | Rain* | Wind** | Luminosity | Snow |
|---|---|---|---|---|---|---|---|
| 1778001518 | 12.22° C | 70% | 1014.6 hPa | - | - | - | - |
| 1777999718 | 12.22° C | 70% | 1014.5 hPa | - | - | - | - |
| 1777997918 | 12.22° C | 68% | 1014.8 hPa | - | - | - | - |
| 1777996117 | 12.22° C | 67% | 1014.8 hPa | - | - | - | - |
| 1777994317 | 12.78° C | 66% | 1015 hPa | - | - | - | - |
| 1777992519 | 12.78° C | 66% | 1015 hPa | - | - | - | - |
| 1777990719 | 12.22° C | 68% | 1015.2 hPa | - | - | - | - |
| 1777988919 | 11.67° C | 69% | 1015.3 hPa | - | - | - | - |
| 1777987118 | 11.67° C | 69% | 1015.7 hPa | - | - | - | - |
| 1777985318 | 11.11° C | 71% | 1015.6 hPa | - | - | - | - |
| 1777983517 | 11.67° C | 71% | 1015.8 hPa | - | - | - | - |
| 1777981717 | 11.67° C | 70% | 1015.9 hPa | - | - | - | - |
| 1777979917 | 12.22° C | 69% | 1016 hPa | - | - | - | - |
| 1777978117 | 11.67° C | 72% | 1016.2 hPa | - | - | - | - |
| 1777976317 | 10.56° C | 76% | 1016.2 hPa | - | - | - | - |
| 1777974516 | 10.56° C | 72% | 1016.3 hPa | - | - | - | - |
| 1777972716 | 10.56° C | 69% | 1016.2 hPa | - | - | - | - |
| 1777970919 | 10.56° C | 71% | 1016 hPa | - | - | - | - |
| 1777969119 | 11.11° C | 69% | 1016 hPa | - | - | - | - |
| 1777967318 | 11.11° C | 69% | 1016 hPa | - | - | - | - |
| 1777965518 | 11.11° C | 68% | 1015.9 hPa | - | - | - | - |
| 1777963718 | 11.11° C | 71% | 1015.8 hPa | - | - | - | - |
| 1777961917 | 10.56° C | 71% | 1015.8 hPa | - | - | - | - |
| 1777960116 | 10.56° C | 72% | 1015.6 hPa | - | - | - | - |
| 1777958316 | 10.56° C | 72% | 1015.5 hPa | - | - | - | - |
* Rain since midnight (hover to see other rain measurements)
** Current wind speed in m/s (hover to see current wind gust speed)